Time;durP1;ratioP1;P1;durP2;ratioP2;P2;SDS_P1;SDS_P2;PMS_P1;PMS_P2;Temp;Humidity;BMP_temperature;BMP_pressure;BME280_temperature;BME280_humidity;BME280_pressure;Samples;Min_cycle;Max_cycle;Signal;HPM_P1;HPM_P2
2024/02/28 00:00:48;;;;;;;31.20;15.70;;;;;;;;;;7321961;19;20411;-46
2024/02/28 00:03:18;;;;;;;35.07;16.33;;;;;;;;;;7345509;19;20423;-46
2024/02/28 00:05:48;;;;;;;32.70;16.80;;;;;;;;;;7321538;19;20986;-47
2024/02/28 00:08:19;;;;;;;36.27;18.50;;;;;;;;;;7345497;19;20504;-47
2024/02/28 00:10:51;;;;;;;37.83;17.40;;;;;;;;;;7322541;19;20443;-48
2024/02/28 00:13:22;;;;;;;40.47;19.80;;;;;;;;;;7345304;19;20439;-48
2024/02/28 00:15:51;;;;;;;39.80;18.23;;;;;;;;;;7322834;19;20434;-47
2024/02/28 00:18:21;;;;;;;37.70;18.13;;;;;;;;;;7345171;19;20416;-47
2024/02/28 00:20:51;;;;;;;45.23;19.03;;;;;;;;;;7318094;19;20423;-49
2024/02/28 00:23:20;;;;;;;41.60;19.07;;;;;;;;;;7344381;19;21145;-47
2024/02/28 00:25:52;;;;;;;38.47;18.07;;;;;;;;;;7322600;19;20433;-50
2024/02/28 00:28:22;;;;;;;41.43;17.87;;;;;;;;;;7344264;19;20433;-48
2024/02/28 00:30:51;;;;;;;40.57;18.23;;;;;;;;;;7319802;19;20475;-47
2024/02/28 00:33:21;;;;;;;38.27;17.77;;;;;;;;;;7344695;19;20411;-47
2024/02/28 00:35:50;;;;;;;40.30;17.07;;;;;;;;;;7321321;19;20415;-50
2024/02/28 00:38:19;;;;;;;39.57;19.00;;;;;;;;;;7344855;19;20431;-46
2024/02/28 00:40:49;;;;;;;43.93;19.60;;;;;;;;;;7320370;19;20418;-48
2024/02/28 00:43:21;;;;;;;43.63;19.93;;;;;;;;;;7344029;19;21262;-49
2024/02/28 00:45:50;;;;;;;45.33;19.80;;;;;;;;;;7321139;19;20429;-48
2024/02/28 00:48:20;;;;;;;45.17;19.80;;;;;;;;;;7344433;19;20463;-47
2024/02/28 00:50:49;;;;;;;55.00;20.83;;;;;;;;;;7320269;19;20423;-50
2024/02/28 00:53:19;;;;;;;47.27;19.50;;;;;;;;;;7345189;19;20437;-45
2024/02/28 00:55:49;;;;;;;54.33;22.90;;;;;;;;;;7321842;19;22031;-51
2024/02/28 00:58:21;;;;;;;52.70;21.83;;;;;;;;;;7343277;19;20429;-48
2024/02/28 01:00:50;;;;;;;54.50;21.53;;;;;;;;;;7319496;19;20431;-50
2024/02/28 01:03:20;;;;;;;48.53;19.50;;;;;;;;;;7343863;19;20441;-49
2024/02/28 01:05:51;;;;;;;53.67;21.93;;;;;;;;;;7319685;19;20423;-46
2024/02/28 01:08:20;;;;;;;52.27;20.63;;;;;;;;;;7343167;19;20777;-48
2024/02/28 01:10:50;;;;;;;47.90;20.50;;;;;;;;;;7319595;19;20435;-51
2024/02/28 01:13:23;;;;;;;42.37;17.50;;;;;;;;;;7350523;19;20538;-49
2024/02/28 01:15:52;;;;;;;43.97;17.70;;;;;;;;;;7327064;19;20546;-46
2024/02/28 01:18:22;;;;;;;42.20;16.60;;;;;;;;;;7347798;19;20399;-50
2024/02/28 01:20:53;;;;;;;41.43;17.20;;;;;;;;;;7323048;19;20457;-48
2024/02/28 01:23:22;;;;;;;45.43;19.03;;;;;;;;;;7346797;19;20403;-50
2024/02/28 01:25:52;;;;;;;44.17;17.17;;;;;;;;;;7326932;19;20522;-45
2024/02/28 01:28:24;;;;;;;33.67;12.33;;;;;;;;;;7350032;19;21082;-47
2024/02/28 01:30:53;;;;;;;38.73;16.17;;;;;;;;;;7322903;19;20403;-46
2024/02/28 01:33:23;;;;;;;42.90;17.90;;;;;;;;;;7349295;19;20431;-49
2024/02/28 01:35:52;;;;;;;35.60;14.83;;;;;;;;;;7324503;19;20811;-52
2024/02/28 01:38:26;;;;;;;46.27;19.40;;;;;;;;;;7344484;19;20646;-47
2024/02/28 01:40:56;;;;;;;43.13;17.50;;;;;;;;;;7323065;19;20391;-46
2024/02/28 01:43:28;;;;;;;42.80;16.87;;;;;;;;;;7346158;19;20431;-44
2024/02/28 01:45:57;;;;;;;38.73;15.83;;;;;;;;;;7323339;19;20528;-50
2024/02/28 01:48:26;;;;;;;43.70;17.00;;;;;;;;;;7346243;19;20424;-50
2024/02/28 01:50:56;;;;;;;47.77;18.10;;;;;;;;;;7322952;19;20432;-46
2024/02/28 01:53:25;;;;;;;45.13;18.57;;;;;;;;;;7347755;19;20423;-46
2024/02/28 01:55:56;;;;;;;44.83;18.07;;;;;;;;;;7325549;19;20438;-44
2024/02/28 01:58:28;;;;;;;42.60;18.30;;;;;;;;;;7346558;19;20420;-45
2024/02/28 02:00:58;;;;;;;48.83;15.47;;;;;;;;;;7322112;19;20922;-48
2024/02/28 02:03:28;;;;;;;41.23;17.40;;;;;;;;;;7346906;19;20426;-45
2024/02/28 02:05:57;;;;;;;44.30;17.40;;;;;;;;;;7321314;19;20464;-50
2024/02/28 02:08:27;;;;;;;42.30;16.40;;;;;;;;;;7347956;19;20457;-44
2024/02/28 02:10:56;;;;;;;21.53;8.83;;;;;;;;;;7325006;19;20567;-46
2024/02/28 02:13:28;;;;;;;42.20;16.87;;;;;;;;;;7345530;19;20411;-46
2024/02/28 02:15:58;;;;;;;42.60;16.20;;;;;;;;;;7321580;19;20436;-48
2024/02/28 02:18:27;;;;;;;34.40;13.03;;;;;;;;;;7344553;19;20518;-47
2024/02/28 02:21:00;;;;;;;38.43;16.67;;;;;;;;;;7321005;19;20400;-49
2024/02/28 02:23:32;;;;;;;38.37;16.70;;;;;;;;;;7343757;19;20444;-46
2024/02/28 02:26:01;;;;;;;37.60;16.50;;;;;;;;;;7323960;19;20514;-46
2024/02/28 02:28:30;;;;;;;37.70;15.87;;;;;;;;;;7346980;19;20431;-46
2024/02/28 02:31:00;;;;;;;41.33;17.00;;;;;;;;;;7323028;19;20442;-49
2024/02/28 02:33:29;;;;;;;39.50;16.20;;;;;;;;;;7347015;19;20419;-47
2024/02/28 02:35:59;;;;;;;45.83;18.67;;;;;;;;;;7323791;19;21657;-46
2024/02/28 02:38:28;;;;;;;39.40;15.13;;;;;;;;;;7346979;19;20510;-48
2024/02/28 02:41:00;;;;;;;34.77;14.30;;;;;;;;;;7323726;19;20450;-48
2024/02/28 02:43:29;;;;;;;37.17;14.77;;;;;;;;;;7345493;19;20415;-48
2024/02/28 02:45:59;;;;;;;24.40;9.60;;;;;;;;;;7321195;19;20417;-50
2024/02/28 02:48:28;;;;;;;35.50;15.33;;;;;;;;;;7341036;19;20987;-52
2024/02/28 02:50:58;;;;;;;33.43;12.43;;;;;;;;;;7322684;19;20427;-56
2024/02/28 02:53:27;;;;;;;41.83;16.83;;;;;;;;;;7346918;19;20914;-50
2024/02/28 02:55:56;;;;;;;44.87;17.33;;;;;;;;;;7323108;19;20435;-56
2024/02/28 02:58:28;;;;;;;38.83;15.47;;;;;;;;;;7344902;19;20531;-51
2024/02/28 03:00:58;;;;;;;40.67;15.87;;;;;;;;;;7323774;19;20423;-57
2024/02/28 03:03:27;;;;;;;40.63;16.70;;;;;;;;;;7345608;19;20802;-52
2024/02/28 03:05:57;;;;;;;38.00;14.30;;;;;;;;;;7323119;19;20431;-52
2024/02/28 03:08:26;;;;;;;36.40;14.97;;;;;;;;;;7345612;19;20430;-52
2024/02/28 03:10:56;;;;;;;39.63;15.57;;;;;;;;;;7322724;19;20454;-52
2024/02/28 03:13:25;;;;;;;50.63;17.90;;;;;;;;;;7346038;19;20419;-52
2024/02/28 03:15:57;;;;;;;36.93;15.60;;;;;;;;;;7322370;19;20434;-53
2024/02/28 03:18:27;;;;;;;39.47;13.30;;;;;;;;;;7345997;19;20441;-53
2024/02/28 03:20:56;;;;;;;35.90;12.93;;;;;;;;;;7321832;19;20440;-54
2024/02/28 03:23:25;;;;;;;34.47;12.80;;;;;;;;;;7345427;19;20420;-54
2024/02/28 03:25:55;;;;;;;33.33;13.03;;;;;;;;;;7322544;19;20569;-55
2024/02/28 03:28:24;;;;;;;41.50;14.60;;;;;;;;;;7345249;19;20993;-53
2024/02/28 03:30:54;;;;;;;37.27;15.50;;;;;;;;;;7329648;19;20426;-53
2024/02/28 03:33:26;;;;;;;34.77;13.90;;;;;;;;;;7353513;19;20427;-56
2024/02/28 03:35:55;;;;;;;34.83;14.13;;;;;;;;;;7329744;19;20427;-55
2024/02/28 03:38:24;;;;;;;39.20;14.83;;;;;;;;;;7351856;19;20427;-56
2024/02/28 03:40:54;;;;;;;35.27;14.37;;;;;;;;;;7329684;19;20863;-56
2024/02/28 03:43:23;;;;;;;36.50;15.50;;;;;;;;;;7353393;19;20515;-52
2024/02/28 03:45:52;;;;;;;47.80;17.40;;;;;;;;;;7329557;19;20511;-55
2024/02/28 03:48:22;;;;;;;44.63;17.33;;;;;;;;;;7352216;19;20444;-52
2024/02/28 03:50:54;;;;;;;39.30;16.30;;;;;;;;;;7328603;19;20427;-53
2024/02/28 03:53:23;;;;;;;31.70;14.77;;;;;;;;;;7351497;19;20495;-50
2024/02/28 03:55:52;;;;;;;46.30;16.27;;;;;;;;;;7329014;19;20763;-51
2024/02/28 03:58:22;;;;;;;37.10;15.00;;;;;;;;;;7352361;19;20495;-55
2024/02/28 04:00:51;;;;;;;40.27;14.73;;;;;;;;;;7328440;19;20490;-55
2024/02/28 04:03:21;;;;;;;45.47;17.03;;;;;;;;;;7349929;19;20411;-50
2024/02/28 04:05:50;;;;;;;37.50;14.90;;;;;;;;;;7328590;19;20518;-51
2024/02/28 04:08:22;;;;;;;37.70;14.87;;;;;;;;;;7350654;19;20443;-54
2024/02/28 04:10:51;;;;;;;36.70;14.63;;;;;;;;;;7327380;19;20428;-55
2024/02/28 04:13:21;;;;;;;42.83;15.70;;;;;;;;;;7351859;19;20427;-53
2024/02/28 04:15:50;;;;;;;43.43;17.67;;;;;;;;;;7328456;19;20425;-53
2024/02/28 04:18:20;;;;;;;37.63;15.13;;;;;;;;;;7351016;19;20410;-56
2024/02/28 04:20:49;;;;;;;39.53;15.87;;;;;;;;;;7325852;19;20431;-52
2024/02/28 04:23:21;;;;;;;37.40;14.67;;;;;;;;;;7351930;19;20526;-50
2024/02/28 04:25:51;;;;;;;40.60;15.87;;;;;;;;;;7326861;19;20435;-54
2024/02/28 04:28:20;;;;;;;37.63;16.30;;;;;;;;;;7350544;19;20431;-57
2024/02/28 04:30:49;;;;;;;37.90;15.73;;;;;;;;;;7327822;19;20427;-52
2024/02/28 04:33:19;;;;;;;38.13;13.87;;;;;;;;;;7352272;19;20442;-53
2024/02/28 04:35:48;;;;;;;39.73;15.50;;;;;;;;;;7327794;19;20782;-51
2024/02/28 04:38:17;;;;;;;42.13;15.10;;;;;;;;;;7351531;19;20797;-53
2024/02/28 04:40:49;;;;;;;34.93;14.20;;;;;;;;;;7326608;19;20438;-52
2024/02/28 04:43:19;;;;;;;37.63;13.07;;;;;;;;;;7350602;19;20991;-53
2024/02/28 04:45:48;;;;;;;36.93;15.33;;;;;;;;;;7326679;19;20431;-55
2024/02/28 04:48:18;;;;;;;34.30;14.70;;;;;;;;;;7349848;19;21319;-53
2024/02/28 04:50:47;;;;;;;34.27;14.30;;;;;;;;;;7327955;19;20958;-53
2024/02/28 04:53:16;;;;;;;29.43;13.63;;;;;;;;;;7350384;19;20451;-53
2024/02/28 04:55:46;;;;;;;37.10;14.07;;;;;;;;;;7326972;19;20502;-56
2024/02/28 04:58:18;;;;;;;39.13;13.97;;;;;;;;;;7349935;19;20491;-53
2024/02/28 05:00:47;;;;;;;40.27;15.37;;;;;;;;;;7326827;19;20499;-54
2024/02/28 05:03:17;;;;;;;33.97;14.00;;;;;;;;;;7349540;19;20399;-54
2024/02/28 05:05:46;;;;;;;40.07;14.27;;;;;;;;;;7325466;19;20428;-56
2024/02/28 05:08:15;;;;;;;38.80;15.87;;;;;;;;;;7349668;19;20407;-54
2024/02/28 05:10:45;;;;;;;36.07;14.73;;;;;;;;;;7326544;19;20435;-55
2024/02/28 05:13:14;;;;;;;34.27;13.10;;;;;;;;;;7349943;19;20397;-56
2024/02/28 05:15:46;;;;;;;38.80;14.93;;;;;;;;;;7326604;19;20983;-53
2024/02/28 05:18:16;;;;;;;34.70;13.53;;;;;;;;;;7349538;19;20399;-53
2024/02/28 05:20:45;;;;;;;37.90;15.37;;;;;;;;;;7325960;19;20426;-55
2024/02/28 05:23:15;;;;;;;38.90;14.93;;;;;;;;;;7349886;19;20962;-56
2024/02/28 05:25:44;;;;;;;38.27;15.37;;;;;;;;;;7326105;19;20547;-57
2024/02/28 05:28:14;;;;;;;36.43;14.33;;;;;;;;;;7348718;19;20399;-53
2024/02/28 05:30:43;;;;;;;34.67;14.07;;;;;;;;;;7332821;19;20423;-51
2024/02/28 05:33:20;;;;;;;34.47;14.83;;;;;;;;;;7350176;19;20399;-55
2024/02/28 05:35:50;;;;;;;39.90;16.67;;;;;;;;;;7325467;19;20518;-50
2024/02/28 05:38:19;;;;;;;41.27;16.27;;;;;;;;;;7348771;19;20399;-51
2024/02/28 05:40:48;;;;;;;40.33;15.13;;;;;;;;;;7326012;19;20423;-52
2024/02/28 05:43:18;;;;;;;37.03;15.30;;;;;;;;;;7349582;19;20412;-53
2024/02/28 05:45:47;;;;;;;39.67;15.60;;;;;;;;;;7325226;19;20551;-52
2024/02/28 05:48:19;;;;;;;41.90;16.97;;;;;;;;;;7348993;19;20417;-54
2024/02/28 05:50:49;;;;;;;36.27;14.57;;;;;;;;;;7325102;19;20432;-54
2024/02/28 05:53:18;;;;;;;42.40;16.90;;;;;;;;;;7346992;19;20471;-54
2024/02/28 05:55:47;;;;;;;41.93;16.10;;;;;;;;;;7325479;19;20447;-55
2024/02/28 05:58:17;;;;;;;34.30;14.90;;;;;;;;;;7348383;19;21072;-55
2024/02/28 06:00:47;;;;;;;37.27;16.03;;;;;;;;;;7324661;19;21007;-54
2024/02/28 06:03:19;;;;;;;42.47;15.83;;;;;;;;;;7348794;19;20395;-55
2024/02/28 06:05:49;;;;;;;41.50;16.60;;;;;;;;;;7323839;19;20467;-51
2024/02/28 06:08:18;;;;;;;41.47;16.20;;;;;;;;;;7348262;19;20863;-49
2024/02/28 06:10:48;;;;;;;37.40;15.57;;;;;;;;;;7325112;19;20438;-52
2024/02/28 06:13:18;;;;;;;42.83;16.70;;;;;;;;;;7349239;19;20409;-51
2024/02/28 06:15:47;;;;;;;43.93;17.57;;;;;;;;;;7325267;19;20435;-53
2024/02/28 06:18:19;;;;;;;40.70;15.20;;;;;;;;;;7345237;19;21238;-51
2024/02/28 06:20:49;;;;;;;40.03;15.60;;;;;;;;;;7318946;19;20456;-51
2024/02/28 06:23:18;;;;;;;41.50;16.50;;;;;;;;;;7340999;19;20429;-50
2024/02/28 06:25:57;;;;;;;43.40;15.83;;;;;;;;;;7317576;19;20875;-55
2024/02/28 06:28:26;;;;;;;44.37;16.63;;;;;;;;;;7341663;19;20435;-55
2024/02/28 06:30:56;;;;;;;49.13;18.70;;;;;;;;;;7318189;19;20424;-57
2024/02/28 06:33:28;;;;;;;44.50;18.27;;;;;;;;;;7342005;19;20433;-56
2024/02/28 06:35:57;;;;;;;40.90;17.23;;;;;;;;;;7316446;19;20427;-56
2024/02/28 06:38:27;;;;;;;44.13;17.37;;;;;;;;;;7340368;19;20522;-54
2024/02/28 06:40:56;;;;;;;47.03;17.53;;;;;;;;;;7317597;19;20427;-57
2024/02/28 06:43:23;;;;;;;40.70;16.80;;;;;;;;;;7341309;19;21302;-53
2024/02/28 06:45:52;;;;;;;43.03;18.57;;;;;;;;;;7316364;19;20431;-55
2024/02/28 06:48:22;;;;;;;50.53;18.33;;;;;;;;;;7339541;19;20427;-53
2024/02/28 06:50:54;;;;;;;41.60;17.60;;;;;;;;;;7317605;19;20427;-53
2024/02/28 06:53:23;;;;;;;49.20;18.13;;;;;;;;;;7339895;19;20498;-51
2024/02/28 06:55:52;;;;;;;41.50;18.00;;;;;;;;;;7316571;19;20427;-56
2024/02/28 06:58:24;;;;;;;43.13;16.43;;;;;;;;;;7339163;19;20430;-54
2024/02/28 07:00:53;;;;;;;37.57;15.80;;;;;;;;;;7316598;19;20419;-51
2024/02/28 07:03:26;;;;;;;44.70;17.30;;;;;;;;;;7339443;19;20452;-54
2024/02/28 07:05:58;;;;;;;35.80;15.93;;;;;;;;;;7316378;19;20459;-56
2024/02/28 07:08:27;;;;;;;37.50;16.50;;;;;;;;;;7339915;19;20449;-54
2024/02/28 07:10:57;;;;;;;38.90;16.50;;;;;;;;;;7316593;19;20444;-55
2024/02/28 07:13:27;;;;;;;36.40;15.50;;;;;;;;;;7339574;19;20532;-54
2024/02/28 07:15:57;;;;;;;34.83;15.13;;;;;;;;;;7316293;19;20427;-55
2024/02/28 07:18:28;;;;;;;32.07;14.53;;;;;;;;;;7337855;19;20456;-54
2024/02/28 07:21:01;;;;;;;35.17;14.90;;;;;;;;;;7315493;19;20486;-52
2024/02/28 07:23:30;;;;;;;38.60;14.30;;;;;;;;;;7340003;19;20422;-55
2024/02/28 07:26:00;;;;;;;33.00;14.73;;;;;;;;;;7314956;19;20861;-56
2024/02/28 07:28:40;;;;;;;36.57;15.00;;;;;;;;;;7339988;19;20442;-55
2024/02/28 07:31:16;;;;;;;30.70;14.60;;;;;;;;;;7317759;19;20434;-55
2024/02/28 07:33:46;;;;;;;41.50;13.90;;;;;;;;;;7316370;19;20419;-56
2024/02/28 07:36:18;;;;;;;32.03;13.07;;;;;;;;;;7337844;19;20431;-55
2024/02/28 07:38:47;;;;;;;32.07;13.77;;;;;;;;;;7316307;19;20451;-52
2024/02/28 07:41:17;;;;;;;26.00;12.60;;;;;;;;;;7338071;19;20431;-54
2024/02/28 07:43:46;;;;;;;33.73;13.50;;;;;;;;;;7316533;19;20439;-50
2024/02/28 07:46:15;;;;;;;27.10;13.00;;;;;;;;;;7334559;19;20441;-50
2024/02/28 07:48:45;;;;;;;31.43;13.47;;;;;;;;;;7314395;19;20435;-53
2024/02/28 07:51:15;;;;;;;32.70;14.77;;;;;;;;;;7334394;19;20518;-49
2024/02/28 07:53:47;;;;;;;29.80;10.47;;;;;;;;;;7313931;19;20426;-53
2024/02/28 07:56:19;;;;;;;30.37;14.17;;;;;;;;;;7334341;19;20425;-53
2024/02/28 07:58:49;;;;;;;61.93;22.97;;;;;;;;;;7314653;19;20500;-53
2024/02/28 08:01:18;;;;;;;30.43;12.60;;;;;;;;;;7335523;19;20415;-52
2024/02/28 08:03:48;;;;;;;29.67;13.07;;;;;;;;;;7313612;19;20968;-52
2024/02/28 08:06:18;;;;;;;30.83;12.77;;;;;;;;;;7333214;19;20415;-50
2024/02/28 08:08:50;;;;;;;31.97;13.47;;;;;;;;;;7314076;19;21191;-54
2024/02/28 08:11:19;;;;;;;53.13;15.83;;;;;;;;;;7333582;19;21097;-53
2024/02/28 08:13:49;;;;;;;23.57;11.00;;;;;;;;;;7312861;19;21057;-51
2024/02/28 08:16:18;;;;;;;32.93;13.47;;;;;;;;;;7340595;19;20514;-51
2024/02/28 08:18:48;;;;;;;30.20;13.47;;;;;;;;;;7320569;19;22688;-54
2024/02/28 08:21:18;;;;;;;35.20;14.97;;;;;;;;;;7339886;19;20832;-53
2024/02/28 08:23:47;;;;;;;31.17;13.20;;;;;;;;;;7320708;19;20911;-51
2024/02/28 08:26:19;;;;;;;31.90;14.90;;;;;;;;;;7340679;19;20439;-51
2024/02/28 08:28:48;;;;;;;40.13;15.90;;;;;;;;;;7310299;19;20438;-51
2024/02/28 08:31:18;;;;;;;26.17;9.87;;;;;;;;;;7343753;19;20427;-53
2024/02/28 08:33:48;;;;;;;36.73;15.10;;;;;;;;;;7320508;19;20430;-51
2024/02/28 08:36:17;;;;;;;35.80;16.10;;;;;;;;;;7342250;19;20422;-55
2024/02/28 08:38:47;;;;;;;37.40;17.10;;;;;;;;;;7321311;19;20431;-52
2024/02/28 08:41:19;;;;;;;44.73;15.13;;;;;;;;;;7342751;19;20439;-50
2024/02/28 08:43:48;;;;;;;36.07;13.17;;;;;;;;;;7321251;19;20423;-53
2024/02/28 08:46:18;;;;;;;41.50;15.63;;;;;;;;;;7340491;19;20527;-51
2024/02/28 08:48:47;;;;;;;37.90;16.37;;;;;;;;;;7320839;19;20482;-54
2024/02/28 08:51:17;;;;;;;47.27;16.90;;;;;;;;;;7341851;19;20430;-53
2024/02/28 08:53:46;;;;;;;50.13;19.20;;;;;;;;;;7320369;19;20427;-51
2024/02/28 08:56:18;;;;;;;42.67;17.67;;;;;;;;;;7342066;19;20419;-52
2024/02/28 08:58:47;;;;;;;43.80;16.93;;;;;;;;;;7309654;19;20514;-59
2024/02/28 09:01:17;;;;;;;41.10;16.33;;;;;;;;;;7323214;19;20419;-50
2024/02/28 09:03:47;;;;;;;43.50;16.67;;;;;;;;;;7316173;19;20419;-50
2024/02/28 09:06:16;;;;;;;44.00;20.20;;;;;;;;;;7346783;19;20418;-52
2024/02/28 09:08:46;;;;;;;39.00;15.80;;;;;;;;;;7323877;19;21308;-55
2024/02/28 09:11:15;;;;;;;45.17;15.50;;;;;;;;;;7349145;19;20407;-47
2024/02/28 09:13:47;;;;;;;40.37;15.40;;;;;;;;;;7327196;19;20522;-50
2024/02/28 09:16:17;;;;;;;38.80;15.67;;;;;;;;;;7348063;19;20427;-51
2024/02/28 09:18:46;;;;;;;36.30;15.43;;;;;;;;;;7326776;19;20458;-53
2024/02/28 09:21:16;;;;;;;31.30;13.17;;;;;;;;;;7347275;19;20781;-55
2024/02/28 09:23:45;;;;;;;37.93;14.53;;;;;;;;;;7326665;19;20427;-52
2024/02/28 09:26:14;;;;;;;36.93;16.90;;;;;;;;;;7347644;19;20406;-51
2024/02/28 09:28:44;;;;;;;35.70;13.53;;;;;;;;;;7328014;19;20432;-49
2024/02/28 09:31:17;;;;;;;29.53;13.10;;;;;;;;;;7348199;19;20407;-51
2024/02/28 09:33:48;;;;;;;40.17;15.80;;;;;;;;;;7326510;19;20486;-49
2024/02/28 09:36:18;;;;;;;43.30;14.40;;;;;;;;;;7348133;19;20503;-55
2024/02/28 09:38:47;;;;;;;35.87;15.77;;;;;;;;;;7326312;19;20849;-52
2024/02/28 09:41:17;;;;;;;35.53;15.97;;;;;;;;;;7348755;19;20781;-52
2024/02/28 09:43:47;;;;;;;37.40;15.93;;;;;;;;;;7325817;19;20419;-49
2024/02/28 09:46:19;;;;;;;33.10;15.33;;;;;;;;;;7346926;19;20395;-49
2024/02/28 09:48:50;;;;;;;34.10;14.50;;;;;;;;;;7325215;19;20419;-53
2024/02/28 09:51:21;;;;;;;32.47;15.07;;;;;;;;;;7345880;19;20403;-50
2024/02/28 09:53:50;;;;;;;35.80;15.30;;;;;;;;;;7325730;19;20423;-49
2024/02/28 09:56:20;;;;;;;32.77;13.83;;;;;;;;;;7344827;19;20979;-54
2024/02/28 09:58:49;;;;;;;36.37;14.60;;;;;;;;;;7326060;19;20439;-49
2024/02/28 10:01:22;;;;;;;39.00;16.43;;;;;;;;;;7347476;19;20404;-50
2024/02/28 10:03:53;;;;;;;20.47;8.40;;;;;;;;;;7324910;19;20455;-53
2024/02/28 10:06:23;;;;;;;27.07;11.97;;;;;;;;;;7347403;19;20810;-48
2024/02/28 10:08:53;;;;;;;30.20;12.77;;;;;;;;;;7325160;19;20424;-48
2024/02/28 10:11:23;;;;;;;29.03;11.23;;;;;;;;;;7347411;19;20927;-48
2024/02/28 10:13:54;;;;;;;23.17;8.20;;;;;;;;;;7325186;19;20431;-49
2024/02/28 10:16:28;;;;;;;31.30;13.70;;;;;;;;;;7347069;19;20502;-49
2024/02/28 10:18:57;;;;;;;29.57;14.30;;;;;;;;;;7324828;19;20983;-52
2024/02/28 10:21:27;;;;;;;25.40;11.60;;;;;;;;;;7346218;19;20510;-55
2024/02/28 10:23:56;;;;;;;32.87;14.50;;;;;;;;;;7323170;19;20416;-50
2024/02/28 10:26:26;;;;;;;34.07;13.10;;;;;;;;;;7347003;19;20434;-52
2024/02/28 10:28:58;;;;;;;32.03;10.00;;;;;;;;;;7324297;19;20498;-49
2024/02/28 10:31:30;;;;;;;25.57;11.83;;;;;;;;;;7347174;19;20429;-53
2024/02/28 10:34:00;;;;;;;26.70;12.60;;;;;;;;;;7324666;19;21009;-51
2024/02/28 10:36:32;;;;;;;27.63;11.87;;;;;;;;;;7344843;19;20415;-51
2024/02/28 10:39:02;;;;;;;27.73;11.53;;;;;;;;;;7323349;19;20486;-49
2024/02/28 10:41:33;;;;;;;27.93;13.27;;;;;;;;;;7346049;19;20498;-54
2024/02/28 10:44:02;;;;;;;25.67;11.67;;;;;;;;;;7324599;19;20929;-52
2024/02/28 10:46:34;;;;;;;32.00;11.90;;;;;;;;;;7344989;19;20423;-55
2024/02/28 10:49:05;;;;;;;24.10;10.83;;;;;;;;;;7323498;19;20407;-50
2024/02/28 10:51:37;;;;;;;26.63;11.43;;;;;;;;;;7345872;19;20461;-53
2024/02/28 10:54:11;;;;;;;28.27;13.50;;;;;;;;;;7323560;19;20391;-52
2024/02/28 10:56:43;;;;;;;33.83;12.50;;;;;;;;;;7343149;19;20422;-48
2024/02/28 10:59:13;;;;;;;27.97;12.40;;;;;;;;;;7345130;19;20399;-48
2024/02/28 11:01:46;;;;;;;28.67;12.30;;;;;;;;;;7339832;19;20423;-52
2024/02/28 11:04:18;;;;;;;31.03;12.03;;;;;;;;;;7347292;19;20796;-52
2024/02/28 11:06:51;;;;;;;36.60;13.80;;;;;;;;;;7319755;19;20514;-48
2024/02/28 11:09:22;;;;;;;30.00;13.20;;;;;;;;;;7347277;19;20477;-50
2024/02/28 11:11:52;;;;;;;26.63;12.37;;;;;;;;;;7322722;19;20427;-53
2024/02/28 11:14:25;;;;;;;25.20;11.33;;;;;;;;;;7346332;19;20399;-50
2024/02/28 11:17:07;;;;;;;23.20;9.90;;;;;;;;;;7323199;19;20464;-49
2024/02/28 11:19:36;;;;;;;17.10;7.40;;;;;;;;;;7346430;19;20454;-49
2024/02/28 11:22:07;;;;;;;24.73;8.50;;;;;;;;;;7321090;19;20471;-49
2024/02/28 11:24:37;;;;;;;25.80;9.00;;;;;;;;;;7345309;19;20465;-49
2024/02/28 11:27:08;;;;;;;27.20;9.93;;;;;;;;;;7321352;19;20758;-50
2024/02/28 11:29:37;;;;;;;17.23;7.27;;;;;;;;;;7345082;19;20427;-50
2024/02/28 11:32:10;;;;;;;30.53;10.40;;;;;;;;;;7322417;19;20391;-50
2024/02/28 11:34:40;;;;;;;27.23;11.73;;;;;;;;;;7345493;19;20788;-53
2024/02/28 11:37:11;;;;;;;26.60;12.03;;;;;;;;;;7322910;19;21126;-49
2024/02/28 11:39:40;;;;;;;23.77;10.37;;;;;;;;;;7345697;19;20434;-55
2024/02/28 11:42:13;;;;;;;31.53;12.30;;;;;;;;;;7323586;19;20423;-50
2024/02/28 11:44:42;;;;;;;19.17;6.43;;;;;;;;;;7342623;19;20420;-47
2024/02/28 11:47:14;;;;;;;27.07;11.07;;;;;;;;;;7343134;19;20416;-47
2024/02/28 11:49:44;;;;;;;32.00;13.30;;;;;;;;;;7327725;19;20447;-51
2024/02/28 11:52:14;;;;;;;28.40;13.50;;;;;;;;;;7350600;19;20399;-52
2024/02/28 11:54:43;;;;;;;19.87;8.80;;;;;;;;;;7341706;19;20423;-49
2024/02/28 11:57:13;;;;;;;19.27;8.93;;;;;;;;;;7350353;19;20620;-48
2024/02/28 11:59:43;;;;;;;20.87;9.23;;;;;;;;;;7342500;19;20423;-51
2024/02/28 12:02:18;;;;;;;23.27;10.00;;;;;;;;;;7351707;19;20415;-48
2024/02/28 12:04:49;;;;;;;23.57;11.90;;;;;;;;;;7329521;19;20437;-48
2024/02/28 12:07:19;;;;;;;28.23;10.97;;;;;;;;;;7349948;19;20518;-51
2024/02/28 12:09:49;;;;;;;29.03;11.63;;;;;;;;;;7327854;19;20430;-50
2024/02/28 12:12:18;;;;;;;24.67;11.00;;;;;;;;;;7350891;19;20395;-46
2024/02/28 12:14:48;;;;;;;26.20;12.37;;;;;;;;;;7327742;19;20423;-53
2024/02/28 12:17:20;;;;;;;18.57;8.87;;;;;;;;;;7351134;19;20403;-47
2024/02/28 12:19:50;;;;;;;21.40;9.97;;;;;;;;;;7328278;19;20439;-49
2024/02/28 12:22:24;;;;;;;29.33;12.40;;;;;;;;;;7350567;19;20464;-50
2024/02/28 12:24:53;;;;;;;27.70;13.30;;;;;;;;;;7328357;19;20423;-50
2024/02/28 12:27:23;;;;;;;22.57;8.70;;;;;;;;;;7351088;19;20407;-51
2024/02/28 12:29:52;;;;;;;21.30;7.20;;;;;;;;;;7327719;19;20492;-48
2024/02/28 12:32:24;;;;;;;26.80;10.93;;;;;;;;;;7350205;19;20430;-50
2024/02/28 12:34:54;;;;;;;25.83;12.57;;;;;;;;;;7327975;19;20442;-50
2024/02/28 12:37:23;;;;;;;29.57;12.43;;;;;;;;;;7349347;19;20403;-50
2024/02/28 12:39:53;;;;;;;27.17;12.30;;;;;;;;;;7327350;19;20435;-47
2024/02/28 12:42:23;;;;;;;28.37;11.03;;;;;;;;;;7350130;19;20395;-50
2024/02/28 12:44:52;;;;;;;29.93;10.40;;;;;;;;;;7328032;19;20446;-48
2024/02/28 12:47:24;;;;;;;24.00;10.60;;;;;;;;;;7349353;19;20416;-48
2024/02/28 12:49:54;;;;;;;30.43;9.53;;;;;;;;;;7320693;19;20470;-46
2024/02/28 12:52:24;;;;;;;35.00;14.40;;;;;;;;;;7335965;19;21140;-52
2024/02/28 12:54:53;;;;;;;27.33;12.10;;;;;;;;;;7318482;19;20975;-46
2024/02/28 12:57:23;;;;;;;33.23;12.53;;;;;;;;;;7344065;19;20963;-48
2024/02/28 12:59:52;;;;;;;28.70;11.10;;;;;;;;;;7320723;19;20451;-50
2024/02/28 13:02:24;;;;;;;41.63;14.10;;;;;;;;;;7342374;19;21305;-47
2024/02/28 13:06:56;;;;;;;29.77;11.93;;;;;;;;;;7168332;19;2917735;-53
2024/02/28 13:09:26;;;;;;;36.50;14.60;;;;;;;;;;7362546;19;20569;-49
2024/02/28 13:11:55;;;;;;;29.93;13.87;;;;;;;;;;7350770;19;20422;-52
2024/02/28 13:14:25;;;;;;;31.83;13.50;;;;;;;;;;7375152;19;20432;-52
2024/02/28 13:16:54;;;;;;;28.53;11.83;;;;;;;;;;7412840;19;20501;-52
2024/02/28 13:19:24;;;;;;;30.47;11.67;;;;;;;;;;7395653;19;20414;-50
2024/02/28 13:21:53;;;;;;;36.83;13.47;;;;;;;;;;7347619;19;20421;-48
2024/02/28 13:24:25;;;;;;;28.17;11.73;;;;;;;;;;7368758;19;20422;-50
2024/02/28 13:26:54;;;;;;;35.50;12.50;;;;;;;;;;7346210;19;20479;-50
2024/02/28 13:29:24;;;;;;;28.23;11.10;;;;;;;;;;7373760;19;20422;-50
2024/02/28 13:31:53;;;;;;;26.30;10.43;;;;;;;;;;7347868;19;20418;-54
2024/02/28 13:34:23;;;;;;;24.50;9.87;;;;;;;;;;7368597;19;20431;-52
2024/02/28 13:36:52;;;;;;;26.67;10.10;;;;;;;;;;7352740;19;20450;-48
2024/02/28 13:39:23;;;;;;;29.57;12.60;;;;;;;;;;7373292;19;20502;-55
2024/02/28 13:41:55;;;;;;;26.90;12.47;;;;;;;;;;7347569;19;20988;-54
2024/02/28 13:44:24;;;;;;;31.03;11.83;;;;;;;;;;7370278;19;20422;-50
2024/02/28 13:46:54;;;;;;;23.90;11.23;;;;;;;;;;7349674;19;20426;-52
2024/02/28 13:49:24;;;;;;;24.57;12.57;;;;;;;;;;7372657;19;20425;-48
2024/02/28 13:51:53;;;;;;;25.30;12.03;;;;;;;;;;7350243;19;20458;-49
2024/02/28 13:54:22;;;;;;;28.10;9.30;;;;;;;;;;7372236;19;20441;-50
2024/02/28 13:56:55;;;;;;;28.70;12.10;;;;;;;;;;7351526;19;20423;-49
2024/02/28 13:59:24;;;;;;;25.33;10.47;;;;;;;;;;7371994;19;20972;-48
2024/02/28 14:01:53;;;;;;;20.27;7.27;;;;;;;;;;7351864;19;20505;-52
2024/02/28 14:04:23;;;;;;;28.40;10.33;;;;;;;;;;7373591;19;21142;-54
2024/02/28 14:06:52;;;;;;;25.67;10.70;;;;;;;;;;7348629;19;20426;-54
2024/02/28 14:09:22;;;;;;;25.60;10.50;;;;;;;;;;7371936;19;20428;-50
2024/02/28 14:11:51;;;;;;;33.30;12.60;;;;;;;;;;7350848;19;20507;-55
2024/02/28 14:14:23;;;;;;;35.10;11.97;;;;;;;;;;7370468;19;20426;-52
2024/02/28 14:16:53;;;;;;;33.30;11.47;;;;;;;;;;7338060;19;20415;-55
2024/02/28 14:19:22;;;;;;;29.40;12.50;;;;;;;;;;7341342;19;20502;-50
2024/02/28 14:21:51;;;;;;;33.27;11.70;;;;;;;;;;7321324;19;20429;-49
2024/02/28 14:24:21;;;;;;;31.10;12.47;;;;;;;;;;7342152;19;20427;-50
2024/02/28 14:26:50;;;;;;;29.23;11.90;;;;;;;;;;7326111;19;20444;-51
2024/02/28 14:29:19;;;;;;;24.13;10.27;;;;;;;;;;7342405;19;20435;-54
2024/02/28 14:31:51;;;;;;;31.40;12.77;;;;;;;;;;7338809;19;20424;-48
2024/02/28 14:34:21;;;;;;;26.03;11.83;;;;;;;;;;7342168;19;20437;-52
2024/02/28 14:36:50;;;;;;;33.27;12.67;;;;;;;;;;7324910;19;20451;-53